Time;durP1;ratioP1;P1;durP2;ratioP2;P2;SDS_P1;SDS_P2;PMS_P1;PMS_P2;Temp;Humidity;BMP_temperature;BMP_pressure;BME280_temperature;BME280_humidity;BME280_pressure;Samples;Min_cycle;Max_cycle;Signal;HPM_P1;HPM_P2
2021/08/31 00:13:52;;;;;;;12.45;9.30;;;;;;;;;;4978501;28;20471;-90
2021/08/31 00:16:20;;;;;;;11.52;8.77;;;;;;;;;;4992451;28;20077;-89
2021/08/31 00:18:46;;;;;;;11.77;9.18;;;;;;;;;;4997983;28;20038;-87
2021/08/31 00:21:11;;;;;;;16.00;9.65;;;;;;;;;;4999071;28;20041;-89
2021/08/31 00:23:37;;;;;;;12.73;8.68;;;;;;;;;;4999487;28;20159;-89
2021/08/31 00:26:02;;;;;;;12.18;7.97;;;;;;;;;;5001239;28;20037;-90
2021/08/31 00:28:28;;;;;;;15.40;9.13;;;;;;;;;;5007320;28;20034;-90
2021/08/31 00:30:53;;;;;;;14.13;8.88;;;;;;;;;;4981108;28;20023;-87
2021/08/31 00:33:18;;;;;;;15.80;10.10;;;;;;;;;;4997155;28;20053;-87
2021/08/31 00:35:44;;;;;;;15.88;9.75;;;;;;;;;;4998128;28;20052;-87
2021/08/31 00:38:09;;;;;;;14.05;10.50;;;;;;;;;;4997840;28;20018;-88
2021/08/31 00:40:35;;;;;;;12.20;10.10;;;;;;;;;;5007009;28;20018;-87
2021/08/31 00:43:01;;;;;;;11.85;9.68;;;;;;;;;;4998225;28;20030;-87
2021/08/31 00:45:27;;;;;;;11.75;8.73;;;;;;;;;;4983750;28;20026;-87
2021/08/31 00:47:53;;;;;;;13.98;10.45;;;;;;;;;;5006939;28;20726;-87
2021/08/31 00:50:19;;;;;;;13.00;9.55;;;;;;;;;;5003179;28;20254;-87
2021/08/31 00:52:44;;;;;;;13.75;10.23;;;;;;;;;;5004095;28;20045;-87
2021/08/31 00:55:10;;;;;;;14.15;10.57;;;;;;;;;;5003024;28;20022;-86
2021/08/31 00:57:37;;;;;;;14.80;10.05;;;;;;;;;;4988359;28;20052;-89
2021/08/31 01:00:05;;;;;;;15.10;9.48;;;;;;;;;;4993107;28;20381;-88
2021/08/31 01:02:30;;;;;;;13.95;11.23;;;;;;;;;;5015665;28;20045;-88
2021/08/31 01:04:56;;;;;;;12.48;10.23;;;;;;;;;;5001801;28;20061;-87
2021/08/31 01:07:21;;;;;;;17.58;12.63;;;;;;;;;;5000492;28;20041;-90
2021/08/31 01:09:49;;;;;;;13.63;11.15;;;;;;;;;;4996036;28;20465;-89
2021/08/31 01:12:15;;;;;;;14.57;11.80;;;;;;;;;;5003098;28;20026;-88
2021/08/31 01:14:41;;;;;;;17.42;12.77;;;;;;;;;;5001579;28;20467;-89
2021/08/31 01:17:08;;;;;;;17.77;12.88;;;;;;;;;;5014021;28;20045;-89
2021/08/31 01:19:34;;;;;;;16.83;11.98;;;;;;;;;;5006706;28;20006;-90
2021/08/31 01:22:01;;;;;;;15.27;11.88;;;;;;;;;;4987518;28;20637;-90
2021/08/31 01:24:26;;;;;;;18.65;13.00;;;;;;;;;;5004608;28;20026;-89
2021/08/31 01:26:52;;;;;;;15.38;12.23;;;;;;;;;;5003440;28;20125;-91
2021/08/31 01:29:18;;;;;;;15.57;12.30;;;;;;;;;;5009136;28;20026;-91
2021/08/31 01:31:43;;;;;;;18.58;12.60;;;;;;;;;;4993467;28;20026;-91
2021/08/31 01:34:09;;;;;;;14.93;12.45;;;;;;;;;;5003396;28;20024;-90
2021/08/31 01:36:34;;;;;;;16.17;13.48;;;;;;;;;;5000978;28;20022;-89
2021/08/31 01:39:00;;;;;;;14.98;12.68;;;;;;;;;;4998866;28;20095;-90
2021/08/31 01:41:26;;;;;;;18.13;13.13;;;;;;;;;;5002034;28;20062;-91
2021/08/31 01:43:52;;;;;;;16.70;13.77;;;;;;;;;;5006982;28;20025;-90
2021/08/31 01:46:18;;;;;;;18.17;13.45;;;;;;;;;;5001793;28;20266;-90
2021/08/31 01:48:43;;;;;;;19.80;14.25;;;;;;;;;;5005457;28;20112;-89
2021/08/31 01:51:08;;;;;;;18.48;14.18;;;;;;;;;;5005648;28;20034;-90
2021/08/31 01:53:34;;;;;;;19.60;15.20;;;;;;;;;;5002506;28;20015;-90
2021/08/31 01:56:00;;;;;;;17.20;14.10;;;;;;;;;;5005797;28;20044;-90
2021/08/31 01:58:44;;;;;;;18.75;14.75;;;;;;;;;;4998169;28;20072;-90
2021/08/31 02:01:11;;;;;;;20.10;14.63;;;;;;;;;;5007189;28;20011;-91
2021/08/31 02:03:37;;;;;;;20.27;16.08;;;;;;;;;;4994399;28;20085;-88
2021/08/31 02:06:02;;;;;;;18.40;14.45;;;;;;;;;;5009569;28;20425;-87
2021/08/31 02:08:27;;;;;;;17.63;13.68;;;;;;;;;;4999331;28;20460;-87
2021/08/31 02:10:53;;;;;;;19.33;12.93;;;;;;;;;;4993949;28;20504;-87
2021/08/31 02:13:19;;;;;;;16.42;13.15;;;;;;;;;;4998469;28;20374;-86
2021/08/31 02:15:44;;;;;;;18.90;13.52;;;;;;;;;;5004956;28;20055;-88
2021/08/31 02:18:10;;;;;;;16.40;12.70;;;;;;;;;;5006800;28;20161;-87
2021/08/31 02:20:35;;;;;;;18.83;13.50;;;;;;;;;;5007523;28;20774;-89
2021/08/31 02:23:01;;;;;;;17.85;12.57;;;;;;;;;;4984966;28;20174;-88
2021/08/31 02:25:27;;;;;;;22.00;13.85;;;;;;;;;;5005125;28;20019;-89
2021/08/31 02:27:52;;;;;;;16.73;12.77;;;;;;;;;;4985858;28;20021;-89
2021/08/31 02:30:18;;;;;;;17.42;13.43;;;;;;;;;;4992931;28;20042;-87
2021/08/31 02:32:47;;;;;;;18.98;12.88;;;;;;;;;;4997923;28;20026;-88
2021/08/31 02:35:12;;;;;;;17.00;13.73;;;;;;;;;;5007790;28;20473;-90
2021/08/31 02:37:38;;;;;;;21.17;13.95;;;;;;;;;;5003791;28;20085;-88
2021/08/31 02:40:04;;;;;;;15.60;12.07;;;;;;;;;;4986444;28;20475;-88
2021/08/31 02:42:30;;;;;;;13.85;11.32;;;;;;;;;;4984966;28;20572;-88
2021/08/31 02:44:55;;;;;;;17.00;13.13;;;;;;;;;;4982769;28;20038;-88
2021/08/31 02:47:21;;;;;;;16.13;12.43;;;;;;;;;;5000128;28;20024;-88
2021/08/31 02:49:46;;;;;;;20.25;13.48;;;;;;;;;;5001436;28;20314;-88
2021/08/31 02:52:12;;;;;;;15.95;11.80;;;;;;;;;;5003295;28;20035;-89
2021/08/31 02:54:37;;;;;;;14.48;11.82;;;;;;;;;;4985995;28;20028;-89
2021/08/31 02:57:02;;;;;;;18.13;12.75;;;;;;;;;;4976372;28;20118;-89
2021/08/31 02:59:29;;;;;;;18.45;12.68;;;;;;;;;;5000053;28;20046;-88
2021/08/31 03:02:07;;;;;;;15.85;13.05;;;;;;;;;;5004361;28;20029;-88
2021/08/31 03:04:36;;;;;;;15.07;12.05;;;;;;;;;;5003103;28;20381;-89
2021/08/31 03:07:04;;;;;;;14.80;12.50;;;;;;;;;;4999680;28;20346;-89
2021/08/31 03:09:29;;;;;;;17.35;11.98;;;;;;;;;;5009818;28;20049;-89
2021/08/31 03:11:55;;;;;;;17.55;12.38;;;;;;;;;;4998883;28;20029;-86
2021/08/31 03:14:21;;;;;;;15.90;12.10;;;;;;;;;;4998833;28;20752;-87
2021/08/31 03:16:47;;;;;;;17.17;12.32;;;;;;;;;;4999792;28;20314;-87
2021/08/31 03:19:13;;;;;;;16.35;13.25;;;;;;;;;;4988436;28;20473;-87
2021/08/31 03:21:38;;;;;;;16.20;13.00;;;;;;;;;;4991821;28;20021;-87
2021/08/31 03:24:04;;;;;;;15.35;11.95;;;;;;;;;;4999734;28;20618;-88
2021/08/31 03:26:29;;;;;;;15.30;11.55;;;;;;;;;;4999039;28;20110;-88
2021/08/31 03:28:54;;;;;;;15.30;11.63;;;;;;;;;;4993931;28;20552;-87
2021/08/31 03:31:20;;;;;;;18.27;14.27;;;;;;;;;;5004558;28;20068;-88
2021/08/31 03:33:46;;;;;;;16.40;12.82;;;;;;;;;;4995536;28;20030;-87
2021/08/31 03:36:11;;;;;;;19.65;13.30;;;;;;;;;;4995005;28;20050;-88
2021/08/31 03:38:36;;;;;;;19.95;13.20;;;;;;;;;;4997338;28;20065;-88
2021/08/31 03:41:02;;;;;;;19.13;13.80;;;;;;;;;;4998664;28;20022;-89
2021/08/31 03:43:27;;;;;;;17.33;12.98;;;;;;;;;;5005513;28;20057;-88
2021/08/31 03:45:53;;;;;;;17.83;13.52;;;;;;;;;;5002556;28;20017;-90
2021/08/31 03:48:18;;;;;;;15.93;13.40;;;;;;;;;;4998425;28;20053;-89
2021/08/31 03:50:43;;;;;;;19.08;14.63;;;;;;;;;;5000404;28;20030;-91
2021/08/31 03:53:09;;;;;;;18.70;13.50;;;;;;;;;;4991963;28;20034;-90
2021/08/31 03:55:34;;;;;;;19.48;15.15;;;;;;;;;;5001607;28;20751;-89
2021/08/31 03:57:59;;;;;;;18.88;14.73;;;;;;;;;;5000605;28;20095;-90
2021/08/31 04:00:25;;;;;;;19.17;14.98;;;;;;;;;;4988354;28;20057;-89
2021/08/31 04:02:50;;;;;;;21.20;16.88;;;;;;;;;;4994550;28;20015;-89
2021/08/31 04:05:15;;;;;;;19.05;15.10;;;;;;;;;;4997076;28;20496;-90
2021/08/31 04:07:41;;;;;;;18.15;13.85;;;;;;;;;;4995709;28;20153;-89
2021/08/31 04:10:06;;;;;;;19.10;14.30;;;;;;;;;;4998010;28;20026;-91
2021/08/31 04:12:32;;;;;;;17.77;15.60;;;;;;;;;;5004682;28;20775;-90
2021/08/31 04:14:57;;;;;;;23.10;15.73;;;;;;;;;;4986355;28;20574;-89
2021/08/31 04:17:22;;;;;;;19.20;14.57;;;;;;;;;;4996272;28;20444;-89
2021/08/31 04:19:48;;;;;;;19.25;13.50;;;;;;;;;;5003834;28;20029;-89
2021/08/31 04:22:13;;;;;;;21.20;15.30;;;;;;;;;;5002167;28;20022;-88
2021/08/31 04:24:39;;;;;;;22.52;15.93;;;;;;;;;;4998011;28;20030;-87
2021/08/31 04:27:04;;;;;;;16.73;13.18;;;;;;;;;;5004885;28;20030;-87
2021/08/31 04:29:29;;;;;;;20.38;14.10;;;;;;;;;;4991713;28;20050;-88
2021/08/31 04:32:04;;;;;;;19.77;15.60;;;;;;;;;;4987984;28;20116;-91
2021/08/31 04:34:30;;;;;;;17.02;13.23;;;;;;;;;;4982103;28;20037;-84
2021/08/31 04:36:55;;;;;;;19.48;13.85;;;;;;;;;;5002915;28;20460;-83
2021/08/31 04:39:20;;;;;;;18.37;13.93;;;;;;;;;;5009510;28;20516;-84
2021/08/31 04:41:47;;;;;;;15.88;13.43;;;;;;;;;;4998060;28;20348;-85
2021/08/31 04:44:12;;;;;;;20.88;13.80;;;;;;;;;;4999759;28;20052;-87
2021/08/31 04:46:37;;;;;;;20.80;13.38;;;;;;;;;;5006138;28;20018;-87
2021/08/31 04:49:03;;;;;;;18.90;14.48;;;;;;;;;;4995637;28;20539;-85
2021/08/31 04:51:28;;;;;;;16.37;13.40;;;;;;;;;;5000714;28;20058;-86
2021/08/31 04:53:54;;;;;;;18.20;13.57;;;;;;;;;;4999618;28;20417;-85
2021/08/31 04:56:19;;;;;;;19.08;14.73;;;;;;;;;;4998176;28;20108;-83
2021/08/31 04:58:44;;;;;;;17.13;13.77;;;;;;;;;;5006643;28;20064;-84
2021/08/31 05:01:10;;;;;;;17.55;13.02;;;;;;;;;;4999558;28;20265;-84
2021/08/31 05:03:36;;;;;;;17.57;12.70;;;;;;;;;;4997164;28;20022;-85
2021/08/31 05:06:01;;;;;;;16.38;13.15;;;;;;;;;;4988931;28;20803;-84
2021/08/31 05:08:27;;;;;;;16.67;12.73;;;;;;;;;;4998478;28;20075;-83
2021/08/31 05:10:52;;;;;;;17.70;13.67;;;;;;;;;;4999022;28;20274;-84
2021/08/31 05:13:20;;;;;;;17.83;14.73;;;;;;;;;;4998111;28;20354;-84
2021/08/31 05:15:45;;;;;;;17.63;14.20;;;;;;;;;;4997523;28;20487;-84
2021/08/31 05:18:11;;;;;;;17.15;13.85;;;;;;;;;;4996999;28;20034;-84
2021/08/31 05:20:37;;;;;;;16.40;13.48;;;;;;;;;;5005424;28;20022;-87
2021/08/31 05:23:03;;;;;;;17.25;13.63;;;;;;;;;;4999864;28;20036;-87
2021/08/31 05:25:28;;;;;;;20.17;16.02;;;;;;;;;;5004289;28;20542;-90
2021/08/31 05:27:54;;;;;;;17.98;13.40;;;;;;;;;;5003377;28;20084;-88
2021/08/31 05:30:20;;;;;;;18.83;13.63;;;;;;;;;;5003275;28;20400;-86
2021/08/31 05:32:45;;;;;;;19.17;13.93;;;;;;;;;;5000941;28;20078;-91
2021/08/31 05:35:11;;;;;;;23.15;14.90;;;;;;;;;;5010806;28;20292;-87
2021/08/31 05:37:36;;;;;;;17.02;13.35;;;;;;;;;;4987146;28;20026;-88
2021/08/31 05:40:02;;;;;;;18.05;14.35;;;;;;;;;;5005375;28;20260;-89
2021/08/31 05:42:27;;;;;;;19.08;14.35;;;;;;;;;;4999856;28;20053;-88
2021/08/31 05:44:53;;;;;;;18.55;13.75;;;;;;;;;;4996539;28;20014;-88
2021/08/31 05:47:18;;;;;;;15.70;13.07;;;;;;;;;;4992266;28;20033;-89
2021/08/31 05:49:43;;;;;;;15.77;12.85;;;;;;;;;;5003312;28;20606;-88
2021/08/31 05:52:12;;;;;;;22.42;15.13;;;;;;;;;;4992503;28;20034;-89
2021/08/31 05:54:37;;;;;;;16.55;12.68;;;;;;;;;;4982817;28;20026;-91
2021/08/31 05:57:06;;;;;;;19.80;15.00;;;;;;;;;;5006571;28;20380;-88
2021/08/31 05:59:35;;;;;;;20.95;15.88;;;;;;;;;;4997125;28;20424;-91
2021/08/31 06:02:01;;;;;;;19.65;14.05;;;;;;;;;;5003048;28;20266;-87
2021/08/31 06:04:26;;;;;;;21.00;14.85;;;;;;;;;;4992662;28;20101;-91
2021/08/31 06:06:51;;;;;;;17.80;14.67;;;;;;;;;;5005583;28;20026;-88
2021/08/31 06:09:20;;;;;;;15.90;13.38;;;;;;;;;;5004344;28;20273;-91
2021/08/31 06:11:45;;;;;;;20.92;14.15;;;;;;;;;;4996840;28;20026;-92
2021/08/31 06:14:11;;;;;;;19.67;15.77;;;;;;;;;;4996279;28;20043;-92
2021/08/31 06:16:36;;;;;;;21.33;14.05;;;;;;;;;;4982646;28;20499;-90
2021/08/31 06:19:02;;;;;;;17.52;13.40;;;;;;;;;;4993646;28;20025;-91
2021/08/31 06:21:27;;;;;;;40.83;31.95;;;;;;;;;;4998053;28;20053;-91
2021/08/31 06:23:59;;;;;;;19.80;14.82;;;;;;;;;;5010386;28;20520;-91
2021/08/31 06:26:25;;;;;;;18.02;14.80;;;;;;;;;;5003759;28;20030;-93
2021/08/31 06:28:50;;;;;;;17.20;13.93;;;;;;;;;;4996006;28;20026;-91
2021/08/31 06:31:16;;;;;;;17.45;12.38;;;;;;;;;;5002192;28;20022;-90
2021/08/31 06:33:45;;;;;;;17.70;12.88;;;;;;;;;;5007442;28;20025;-91
2021/08/31 06:36:14;;;;;;;17.13;13.00;;;;;;;;;;4995561;28;20076;-90
2021/08/31 06:38:39;;;;;;;17.73;13.35;;;;;;;;;;5009391;28;20136;-91
2021/08/31 06:41:06;;;;;;;19.70;13.75;;;;;;;;;;5000341;28;20551;-91
2021/08/31 06:49:40;;;;;;;22.60;13.20;;;;;;;;;;5001220;28;20037;-90
2021/08/31 06:52:16;;;;;;;;;;;;;;;;;;;;;
2021/08/31 06:54:43;;;;;;;19.00;14.25;;;;;;;;;;5003320;28;20030;-86
2021/08/31 06:57:19;;;;;;;19.57;12.53;;;;;;;;;;4994056;28;20470;-90
2021/08/31 07:00:14;;;;;;;17.80;13.15;;;;;;;;;;5015021;28;20305;-90
2021/08/31 07:03:00;;;;;;;18.02;12.68;;;;;;;;;;5012574;28;20020;-91
2021/08/31 07:06:07;;;;;;;;;;;;;;;;;;;;;
2021/08/31 07:08:33;;;;;;;14.75;11.77;;;;;;;;;;4989714;28;20489;-87
2021/08/31 07:14:15;;;;;;;14.57;11.40;;;;;;;;;;4986542;28;20057;-88
2021/08/31 07:16:41;;;;;;;14.43;10.75;;;;;;;;;;4995531;28;20023;-88
2021/08/31 07:19:06;;;;;;;15.90;11.13;;;;;;;;;;5003364;28;20037;-90
2021/08/31 07:21:45;;;;;;;14.10;10.75;;;;;;;;;;5000628;28;20034;-90
2021/08/31 07:24:19;;;;;;;15.38;10.52;;;;;;;;;;4992193;28;20026;-90
2021/08/31 07:26:44;;;;;;;14.68;10.45;;;;;;;;;;4980416;28;20358;-89
2021/08/31 07:39:01;;;;;;;13.80;9.70;;;;;;;;;;4967851;28;20031;-90
2021/08/31 07:41:55;;;;;;;;;;;;;;;;;;;;;
2021/08/31 07:44:20;;;;;;;15.52;11.18;;;;;;;;;;4980588;28;20440;-91
2021/08/31 07:46:58;;;;;;;14.25;9.95;;;;;;;;;;5010239;28;20075;-91
2021/08/31 07:49:26;;;;;;;11.27;8.27;;;;;;;;;;5001711;28;20049;-90
2021/08/31 07:55:23;;;;;;;12.90;8.85;;;;;;;;;;5006478;28;20569;-91
2021/08/31 08:04:26;;;;;;;12.02;8.15;;;;;;;;;;4946645;28;20075;-91
2021/08/31 08:13:18;;;;;;;11.80;8.18;;;;;;;;;;4953146;28;20053;-90
2021/08/31 08:19:06;;;;;;;25.05;19.85;;;;;;;;;;4936128;29;20102;-89
2021/08/31 08:21:32;;;;;;;18.35;13.60;;;;;;;;;;4933637;28;20034;-85
2021/08/31 08:23:57;;;;;;;13.20;9.07;;;;;;;;;;4978464;28;20560;-84
2021/08/31 08:26:22;;;;;;;10.27;7.43;;;;;;;;;;4999245;28;20026;-85
2021/08/31 08:28:48;;;;;;;10.47;7.00;;;;;;;;;;4999194;28;20276;-85
2021/08/31 08:31:13;;;;;;;9.95;8.13;;;;;;;;;;5005964;28;20273;-84
2021/08/31 08:33:38;;;;;;;11.52;8.52;;;;;;;;;;4997483;28;20030;-85
2021/08/31 08:36:05;;;;;;;9.18;7.35;;;;;;;;;;4983798;28;20049;-85
2021/08/31 08:38:30;;;;;;;9.75;7.13;;;;;;;;;;5000719;28;20030;-86
2021/08/31 08:40:57;;;;;;;11.65;8.20;;;;;;;;;;4999343;28;20400;-85
2021/08/31 08:43:22;;;;;;;10.45;7.32;;;;;;;;;;4998436;28;20353;-87
2021/08/31 08:45:49;;;;;;;19.92;9.45;;;;;;;;;;4998959;28;20018;-86
2021/08/31 08:48:15;;;;;;;11.05;8.50;;;;;;;;;;4997839;28;20381;-87
2021/08/31 08:50:40;;;;;;;11.73;8.38;;;;;;;;;;4999661;28;20027;-85
2021/08/31 08:53:06;;;;;;;11.03;8.17;;;;;;;;;;4999865;28;20536;-87
2021/08/31 08:55:31;;;;;;;11.23;8.02;;;;;;;;;;4999608;28;20385;-87
2021/08/31 08:57:56;;;;;;;19.27;17.07;;;;;;;;;;4988340;28;20526;-86
2021/08/31 09:00:22;;;;;;;12.80;9.00;;;;;;;;;;4995696;28;20273;-84
2021/08/31 09:02:47;;;;;;;13.60;9.50;;;;;;;;;;4987874;28;20356;-85
2021/08/31 09:05:29;;;;;;;12.45;9.98;;;;;;;;;;4997916;28;20037;-85
2021/08/31 09:08:02;;;;;;;11.90;8.35;;;;;;;;;;4996306;28;20514;-83
2021/08/31 09:10:27;;;;;;;10.48;7.80;;;;;;;;;;4998596;28;20113;-83
2021/08/31 09:12:53;;;;;;;11.23;8.63;;;;;;;;;;4998909;28;20105;-83
2021/08/31 09:15:28;;;;;;;11.65;8.38;;;;;;;;;;5010196;28;20052;-84
2021/08/31 09:18:03;;;;;;;12.23;7.97;;;;;;;;;;4979939;28;20392;-84
2021/08/31 09:20:29;;;;;;;11.55;8.50;;;;;;;;;;5007034;28;20364;-85
2021/08/31 09:22:54;;;;;;;10.30;7.40;;;;;;;;;;5007112;28;20017;-85
2021/08/31 09:25:30;;;;;;;11.27;8.80;;;;;;;;;;5006922;28;20033;-87
2021/08/31 09:27:56;;;;;;;10.82;8.38;;;;;;;;;;4992280;28;20092;-85
2021/08/31 09:30:26;;;;;;;10.48;8.02;;;;;;;;;;5002434;28;20045;-86
2021/08/31 09:33:02;;;;;;;13.10;7.22;;;;;;;;;;5004708;28;20041;-85
2021/08/31 09:35:31;;;;;;;11.07;7.78;;;;;;;;;;5001634;28;20481;-86
2021/08/31 09:38:00;;;;;;;10.55;7.35;;;;;;;;;;4994422;28;20144;-84
2021/08/31 09:40:27;;;;;;;10.15;7.15;;;;;;;;;;5000983;28;20433;-86
2021/08/31 09:42:55;;;;;;;11.27;6.40;;;;;;;;;;5003085;28;20045;-86
2021/08/31 09:45:25;;;;;;;9.85;6.30;;;;;;;;;;4997347;28;20354;-86
2021/08/31 09:47:51;;;;;;;10.23;7.35;;;;;;;;;;4994202;28;20034;-86
2021/08/31 09:50:29;;;;;;;17.73;14.52;;;;;;;;;;5002681;28;20325;-87
2021/08/31 09:53:01;;;;;;;14.68;11.63;;;;;;;;;;4995878;28;20064;-86
2021/08/31 09:55:27;;;;;;;11.70;7.30;;;;;;;;;;5005035;28;21978;-86
2021/08/31 09:58:05;;;;;;;8.38;6.18;;;;;;;;;;4996913;28;20024;-86
2021/08/31 10:00:30;;;;;;;9.32;6.65;;;;;;;;;;5007677;28;20346;-86
2021/08/31 10:02:55;;;;;;;10.15;6.07;;;;;;;;;;5001010;28;20029;-87
2021/08/31 10:05:24;;;;;;;8.33;5.57;;;;;;;;;;4985114;28;20061;-90
2021/08/31 10:07:49;;;;;;;9.93;6.75;;;;;;;;;;4998112;28;20421;-91
2021/08/31 10:10:15;;;;;;;12.60;7.50;;;;;;;;;;4998197;28;20065;-87
2021/08/31 10:12:40;;;;;;;10.30;7.47;;;;;;;;;;5004436;28;20032;-94
2021/08/31 10:15:08;;;;;;;11.10;7.05;;;;;;;;;;5003886;28;20034;-89
2021/08/31 10:17:33;;;;;;;10.57;6.70;;;;;;;;;;5004301;28;20656;-90
2021/08/31 10:20:02;;;;;;;11.23;6.90;;;;;;;;;;4979929;28;20022;-89
2021/08/31 10:22:27;;;;;;;10.20;8.17;;;;;;;;;;5008676;28;20672;-89
2021/08/31 10:24:53;;;;;;;8.30;6.78;;;;;;;;;;5000187;28;20026;-90
2021/08/31 10:27:30;;;;;;;8.52;6.93;;;;;;;;;;4999902;28;20063;-90
2021/08/31 10:30:15;;;;;;;11.75;8.07;;;;;;;;;;5003488;28;20212;-90
2021/08/31 10:32:41;;;;;;;11.85;7.03;;;;;;;;;;5004905;28;20092;-89
2021/08/31 10:35:07;;;;;;;10.15;6.75;;;;;;;;;;5001986;28;20073;-86
2021/08/31 10:37:45;;;;;;;11.18;6.55;;;;;;;;;;5000410;28;20026;-89
2021/08/31 10:40:11;;;;;;;11.40;7.80;;;;;;;;;;4998063;28;20508;-85
2021/08/31 10:42:36;;;;;;;9.05;6.35;;;;;;;;;;5002307;28;20049;-88
2021/08/31 10:45:03;;;;;;;42.63;36.83;;;;;;;;;;5002852;28;20029;-87
2021/08/31 10:47:37;;;;;;;14.63;9.85;;;;;;;;;;4998725;28;20433;-86
2021/08/31 10:50:08;;;;;;;10.98;7.07;;;;;;;;;;5002280;28;20184;-88
2021/08/31 10:52:33;;;;;;;11.02;6.60;;;;;;;;;;4986961;28;20350;-87
2021/08/31 10:54:59;;;;;;;12.73;7.05;;;;;;;;;;5006340;28;20033;-89
2021/08/31 10:57:36;;;;;;;9.45;7.20;;;;;;;;;;5000666;28;20030;-89
2021/08/31 11:00:14;;;;;;;9.98;7.40;;;;;;;;;;5000079;28;20275;-89
2021/08/31 11:02:48;;;;;;;14.73;6.75;;;;;;;;;;5000994;28;20029;-89
2021/08/31 11:05:25;;;;;;;9.82;6.75;;;;;;;;;;5003702;28;20065;-90
2021/08/31 11:07:51;;;;;;;11.85;6.57;;;;;;;;;;5003414;28;20380;-86
2021/08/31 11:10:24;;;;;;;17.30;5.93;;;;;;;;;;4999917;28;20447;-90
2021/08/31 11:12:49;;;;;;;9.02;5.45;;;;;;;;;;5000828;28;20022;-90
2021/08/31 11:15:18;;;;;;;6.95;5.32;;;;;;;;;;4986474;28;20022;-88
2021/08/31 11:17:46;;;;;;;9.57;6.22;;;;;;;;;;5005591;28;20477;-90
2021/08/31 11:20:11;;;;;;;8.60;6.35;;;;;;;;;;4985849;28;20400;-87
2021/08/31 11:22:37;;;;;;;9.32;6.40;;;;;;;;;;4983971;28;20038;-89
2021/08/31 11:25:02;;;;;;;10.07;5.97;;;;;;;;;;5002377;28;20041;-88
2021/08/31 11:27:29;;;;;;;8.88;6.18;;;;;;;;;;5002080;28;20030;-90
2021/08/31 11:29:57;;;;;;;7.65;5.13;;;;;;;;;;5002606;28;20629;-88
2021/08/31 11:32:23;;;;;;;8.68;5.15;;;;;;;;;;5002248;28;20032;-88
2021/08/31 11:35:02;;;;;;;9.77;5.97;;;;;;;;;;4995776;28;20097;-85
2021/08/31 11:37:27;;;;;;;8.10;6.07;;;;;;;;;;5005810;28;20380;-87
2021/08/31 11:39:56;;;;;;;8.10;5.43;;;;;;;;;;4987273;28;20025;-91
2021/08/31 11:42:21;;;;;;;8.25;5.72;;;;;;;;;;5002839;28;20364;-90
2021/08/31 11:44:59;;;;;;;8.23;5.70;;;;;;;;;;4992941;28;20564;-90
2021/08/31 11:47:24;;;;;;;10.13;6.57;;;;;;;;;;5007259;28;20437;-89
2021/08/31 11:49:50;;;;;;;8.02;5.90;;;;;;;;;;5002979;28;20074;-92
2021/08/31 11:52:15;;;;;;;9.35;6.70;;;;;;;;;;5010181;28;20030;-91
2021/08/31 11:54:45;;;;;;;9.27;5.43;;;;;;;;;;5013144;28;20013;-90
2021/08/31 11:57:11;;;;;;;8.48;5.90;;;;;;;;;;5000318;28;20369;-92
2021/08/31 11:59:44;;;;;;;11.25;5.75;;;;;;;;;;4985449;28;20596;-89
2021/08/31 12:02:26;;;;;;;8.20;6.05;;;;;;;;;;4999261;28;20509;-86
2021/08/31 12:04:54;;;;;;;9.23;6.25;;;;;;;;;;5007715;28;20022;-92
2021/08/31 12:07:20;;;;;;;9.52;7.03;;;;;;;;;;5005093;28;20358;-87
2021/08/31 12:09:46;;;;;;;9.25;6.22;;;;;;;;;;5001154;28;20484;-91
2021/08/31 12:12:12;;;;;;;7.90;5.90;;;;;;;;;;4999013;28;20054;-92
2021/08/31 12:14:38;;;;;;;9.77;5.95;;;;;;;;;;4993903;28;20058;-91
2021/08/31 12:17:03;;;;;;;8.52;6.00;;;;;;;;;;5002975;28;20034;-88
2021/08/31 12:19:29;;;;;;;9.25;6.53;;;;;;;;;;4992120;28;20018;-92
2021/08/31 12:22:10;;;;;;;8.07;5.70;;;;;;;;;;5001544;28;20042;-92
2021/08/31 12:24:36;;;;;;;9.50;6.10;;;;;;;;;;4998715;28;20395;-93
2021/08/31 12:27:15;;;;;;;8.70;6.20;;;;;;;;;;4997444;28;20030;-92
2021/08/31 12:29:45;;;;;;;10.75;6.60;;;;;;;;;;5002338;28;20022;-94
2021/08/31 12:32:10;;;;;;;7.72;5.30;;;;;;;;;;4996916;28;20045;-91
2021/08/31 12:34:36;;;;;;;7.63;6.00;;;;;;;;;;5002124;28;20018;-95
2021/08/31 12:37:01;;;;;;;8.70;5.50;;;;;;;;;;5003717;28;20026;-93
2021/08/31 12:44:39;;;;;;;15.52;10.98;;;;;;;;;;5465783;23;20080;-87
2021/08/31 12:47:07;;;;;;;8.73;6.32;;;;;;;;;;5013472;28;20060;-90
2021/08/31 12:49:33;;;;;;;7.68;5.75;;;;;;;;;;5012134;28;20049;-88
2021/08/31 12:52:19;;;;;;;8.68;5.28;;;;;;;;;;5011824;28;20504;-87
2021/08/31 12:54:45;;;;;;;9.13;5.63;;;;;;;;;;5011842;28;20017;-86
2021/08/31 12:57:10;;;;;;;8.30;5.40;;;;;;;;;;5012074;28;20360;-85
2021/08/31 12:59:37;;;;;;;8.93;5.80;;;;;;;;;;5010343;28;20022;-85
2021/08/31 13:02:05;;;;;;;9.65;5.60;;;;;;;;;;5011892;28;20180;-85
2021/08/31 13:04:31;;;;;;;9.98;5.40;;;;;;;;;;5011890;28;20368;-84
2021/08/31 13:07:04;;;;;;;6.82;4.90;;;;;;;;;;5011651;28;20018;-84
2021/08/31 13:09:29;;;;;;;7.55;5.30;;;;;;;;;;5011514;28;20379;-84
2021/08/31 13:11:55;;;;;;;7.80;5.60;;;;;;;;;;5012386;28;20022;-84
2021/08/31 13:14:22;;;;;;;9.85;5.75;;;;;;;;;;5012516;28;20025;-85
2021/08/31 13:16:48;;;;;;;9.27;5.80;;;;;;;;;;5011164;28;20388;-84
2021/08/31 13:19:14;;;;;;;8.65;6.07;;;;;;;;;;5012095;28;20029;-83
2021/08/31 13:21:39;;;;;;;8.27;5.45;;;;;;;;;;5011576;28;20025;-85
2021/08/31 13:24:06;;;;;;;8.75;5.72;;;;;;;;;;5011259;28;20033;-84
2021/08/31 13:26:32;;;;;;;7.75;5.65;;;;;;;;;;5011883;28;21544;-87
2021/08/31 13:28:58;;;;;;;9.85;5.82;;;;;;;;;;4994521;28;20037;-85
2021/08/31 13:31:24;;;;;;;8.77;5.45;;;;;;;;;;5011952;28;20026;-89
2021/08/31 13:34:01;;;;;;;9.55;5.40;;;;;;;;;;5014996;28;20267;-90
2021/08/31 14:06:53;;;;;;;8.55;6.32;;;;;;;;;;5187836;23;20038;-87
2021/08/31 14:09:18;;;;;;;10.10;6.43;;;;;;;;;;5011009;28;20049;-88
2021/08/31 14:11:43;;;;;;;18.85;10.70;;;;;;;;;;5013954;28;20010;-89
2021/08/31 14:14:09;;;;;;;8.73;5.40;;;;;;;;;;5014178;28;20034;-88
2021/08/31 14:16:34;;;;;;;8.38;5.75;;;;;;;;;;5014305;28;20380;-87
2021/08/31 14:18:59;;;;;;;11.40;5.67;;;;;;;;;;5012475;28;20026;-82
2021/08/31 14:21:24;;;;;;;9.75;5.28;;;;;;;;;;5012020;28;20279;-88
2021/08/31 14:23:50;;;;;;;7.70;5.55;;;;;;;;;;5016617;28;20088;-89
2021/08/31 14:26:15;;;;;;;8.10;5.15;;;;;;;;;;5014680;28;20037;-88
2021/08/31 14:28:41;;;;;;;6.25;4.93;;;;;;;;;;5021693;28;20097;-91
2021/08/31 14:31:06;;;;;;;10.25;5.20;;;;;;;;;;5009843;28;20033;-89
2021/08/31 14:33:32;;;;;;;10.10;5.60;;;;;;;;;;4995893;28;20029;-91
2021/08/31 14:35:57;;;;;;;7.90;5.68;;;;;;;;;;5010482;28;20029;-84
2021/08/31 14:38:23;;;;;;;7.15;5.28;;;;;;;;;;5006475;28;20021;-88
2021/08/31 14:40:48;;;;;;;8.73;5.22;;;;;;;;;;5003456;28;20584;-85
2021/08/31 14:43:14;;;;;;;9.30;5.23;;;;;;;;;;5003973;28;20241;-87
2021/08/31 14:45:39;;;;;;;9.23;5.47;;;;;;;;;;5004432;28;20625;-87
2021/08/31 14:48:05;;;;;;;8.60;5.60;;;;;;;;;;5004372;28;20022;-93
2021/08/31 14:50:31;;;;;;;7.07;5.10;;;;;;;;;;5003946;28;20265;-91
2021/08/31 14:52:56;;;;;;;8.43;5.93;;;;;;;;;;5010328;28;20010;-94
2021/08/31 14:55:22;;;;;;;8.25;5.10;;;;;;;;;;5007743;28;20042;-93
2021/08/31 14:57:47;;;;;;;8.35;5.22;;;;;;;;;;4996909;28;20022;-91
2021/08/31 15:00:14;;;;;;;9.45;5.45;;;;;;;;;;5003169;28;20088;-88
2021/08/31 15:02:40;;;;;;;9.27;5.00;;;;;;;;;;5005328;28;20022;-89
2021/08/31 15:05:05;;;;;;;8.88;5.63;;;;;;;;;;5008920;28;20018;-91
2021/08/31 15:07:32;;;;;;;18.90;8.57;;;;;;;;;;5012932;28;20160;-95
2021/08/31 15:31:38;;;;;;;8.52;5.82;;;;;;;;;;4939434;28;20034;-90
2021/08/31 15:34:04;;;;;;;8.80;6.60;;;;;;;;;;4971979;28;20026;-88
2021/08/31 15:36:33;;;;;;;11.07;6.07;;;;;;;;;;4972552;28;20050;-90
2021/08/31 15:39:08;;;;;;;9.50;5.38;;;;;;;;;;4972432;28;20050;-91
2021/08/31 15:41:34;;;;;;;7.28;5.45;;;;;;;;;;4956793;28;20086;-90
2021/08/31 15:47:15;;;;;;;8.68;5.72;;;;;;;;;;4964546;28;20034;-92
2021/08/31 15:53:17;;;;;;;;;;;;;;;;;;;;;
2021/08/31 15:56:22;;;;;;;;;;;;;;;;;;;;;
2021/08/31 15:58:55;;;;;;;7.65;5.57;;;;;;;;;;4909459;28;20031;-91
2021/08/31 16:01:31;;;;;;;;;;;;;;;;;;;;;
2021/08/31 16:14:53;;;;;;;7.88;5.80;;;;;;;;;;4965093;28;20098;-95
2021/08/31 16:17:19;;;;;;;7.60;5.63;;;;;;;;;;4978131;28;20014;-90
2021/08/31 16:19:44;;;;;;;7.65;5.38;;;;;;;;;;4959707;28;20389;-89
2021/08/31 16:22:19;;;;;;;;;;;;;;;;;;;;;
2021/08/31 16:32:06;;;;;;;8.35;5.97;;;;;;;;;;4874472;29;20053;-91
2021/08/31 16:37:57;;;;;;;10.98;6.05;;;;;;;;;;4829998;29;20408;-87
2021/08/31 17:21:10;;;;;;;9.45;5.38;;;;;;;;;;4993867;28;20026;-92
2021/08/31 17:30:15;;;;;;;10.77;5.50;;;;;;;;;;4968060;28;20042;-90
2021/08/31 17:32:43;;;;;;;9.25;5.25;;;;;;;;;;4968752;28;20102;-91
2021/08/31 17:35:16;;;;;;;8.32;5.20;;;;;;;;;;4974037;28;20393;-92
2021/08/31 18:23:19;;;;;;;24.52;17.98;;;;;;;;;;4972549;28;20454;-86
2021/08/31 18:25:45;;;;;;;24.80;20.02;;;;;;;;;;4980273;28;20048;-86